Puntarenas, Costa Rica
Current Conditions -  °F | °C
As of 1:00 PM on Wednesday 26 Nov 2014 (Local Time) from MRPV Reporting Station
Broken Clouds Broken Clouds  
Wind Chill: 77°   Ceiling: 12000
Heat Index: 79°   Visibility: 6mi
Dew Point: 61°   Wind: 17mph
Humidity: 57%   Direction: 70°ENE
Pressure: 29.98"   Gusts: NA
Location:  9.58°N, 84.5°W
Report Text: MRPV 261900Z 07015KT 9999 FEW030 BKN120 25/16 A2998 NOSIG
Loading
Personal Weather Stations






























Interactive Weather Map New forecast layout! Learn more

10-Day Weather Forecast

Advertisements
Track Severe Weather on mobile